aviador You're here:

CYMO Decoded Metar

MOOSONEE in ON, CANADA
Report Time2018-01-18 09:00:00
UTC Time2018-01-18 10:04:54
Flight Rules vfr VFR
Wind280° at 05 kt
W.Decomp.*RWY 32: 4.5 kt HW 2.3 kt LCW
RWY 24: 3.0 kt HW 4.0 kt RCW
W.Rank280° ranks 3
Current wind is below 280° avg. (8.2)
Visibility9999 m
Phenomena:N/A
Clouds:N/A
Expected CloudBase > 400 ft AGL from Temp-Dew spread
CeilingNone
Temp-20°C (ISA -35)
Dew Point-21°C (92% RH)
AAT-25.4°C
QNH1010 hPa
Density Alt-4,321 ft
Elevation33 ft
Report Wrong Elevation
Raw Report
CYMO 180900Z AUTO 28005KT 9SM CLR M20/M21 A2984 RMK SLP106=

Extra information for CYMO:More info

Metar Taf Metar & Taf Last 4 Metars F.Rules Stats Wind Profile Meteogram Temp Stats Airport Information Weather charts Add Link Nearby VenuesMetar ALERT Operation Metar Decoded Social comments